Time,TemperatureF,DewpointF,PressureIn,WindDirection,WindDirectionDegrees,WindSpeedMPH,WindSpeedGustMPH,Humidity,HourlyPrecipIn,Conditions,Clouds,dailyrainin,SolarRadiationWatts/m^2,SoftwareType,DateUTC
2013-06-25 00:02:00,57.3,52.5,29.76,SSW,212,0.0,0.0,84,0.00,,OVC100,0.00,0.00,VWS V14.01,2013-06-25 07:02:00,
2013-06-25 00:07:00,57.4,52.6,29.76,SSW,212,0.0,1.0,84,0.00,,OVC100,0.00,0.00,VWS V14.01,2013-06-25 07:07:00,
2013-06-25 00:12:00,57.3,52.5,29.76,SSW,212,0.0,0.0,84,0.00,,OVC100,0.00,0.00,VWS V14.01,2013-06-25 07:12:00,
2013-06-25 00:17:00,57.3,52.8,29.76,SSW,212,0.0,1.0,85,0.00,,OVC100,0.00,0.00,VWS V14.01,2013-06-25 07:17:00,
2013-06-25 00:22:00,57.3,52.8,29.75,SSW,212,0.0,1.0,85,0.00,,OVC100,0.00,0.00,VWS V14.01,2013-06-25 07:22:00,
2013-06-25 00:27:00,57.3,52.8,29.75,SSW,212,0.0,2.0,85,0.00,,OVC100,0.00,0.00,VWS V14.01,2013-06-25 07:27:00,
2013-06-25 00:32:00,57.2,52.7,29.76,SSW,212,0.0,1.0,85,0.00,,OVC100,0.00,0.00,VWS V14.01,2013-06-25 07:32:00,
2013-06-25 00:37:00,57.1,52.6,29.76,SSW,212,0.0,0.0,85,0.00,,OVC100,0.00,0.00,VWS V14.01,2013-06-25 07:37:00,
2013-06-25 00:42:00,57.1,53.0,29.76,SSW,212,0.0,0.0,86,0.00,,OVC100,0.00,0.00,VWS V14.01,2013-06-25 07:42:00,
2013-06-25 00:47:00,57.0,52.5,29.76,SSW,212,0.0,0.0,85,0.00,,OVC100,0.00,0.00,VWS V14.01,2013-06-25 07:47:00,
2013-06-25 00:52:00,57.0,52.5,29.76,SSW,212,0.0,0.0,85,0.00,,OVC100,0.00,0.00,VWS V14.01,2013-06-25 07:52:00,
2013-06-25 00:57:00,56.9,52.4,29.76,SSW,212,0.0,0.0,85,0.00,,OVC100,0.00,0.00,VWS V14.01,2013-06-25 07:57:00,
2013-06-25 01:02:00,56.9,52.4,29.75,SSW,212,0.0,0.0,85,0.00,,OVC095,0.00,0.00,VWS V14.01,2013-06-25 08:02:00,
2013-06-25 01:07:00,56.8,52.3,29.75,SSW,212,0.0,0.0,85,0.00,,OVC095,0.00,0.00,VWS V14.01,2013-06-25 08:07:00,
2013-06-25 01:12:00,56.9,52.1,29.75,SSW,212,0.0,0.0,84,0.00,,OVC095,0.00,0.00,VWS V14.01,2013-06-25 08:12:00,
2013-06-25 01:17:00,56.9,52.4,29.75,SSW,212,0.0,0.0,85,0.00,,OVC095,0.00,0.00,VWS V14.01,2013-06-25 08:17:00,
2013-06-25 01:22:00,56.9,52.4,29.75,SSW,212,0.0,0.0,85,0.00,,OVC095,0.00,0.00,VWS V14.01,2013-06-25 08:22:00,
2013-06-25 01:27:00,56.9,52.4,29.75,SSW,212,0.0,0.0,85,0.00,,OVC095,0.00,0.00,VWS V14.01,2013-06-25 08:27:00,
2013-06-25 01:32:00,56.9,52.4,29.75,SSW,212,0.0,0.0,85,0.00,,OVC095,0.00,0.00,VWS V14.01,2013-06-25 08:32:00,
2013-06-25 01:37:00,56.9,52.4,29.75,SSW,212,0.0,0.0,85,0.00,,OVC095,0.00,0.00,VWS V14.01,2013-06-25 08:37:00,
2013-06-25 01:42:00,56.9,52.8,29.75,SSW,212,0.0,0.0,86,0.00,,OVC095,0.00,0.00,VWS V14.01,2013-06-25 08:42:00,
2013-06-25 01:47:00,56.9,52.8,29.75,SSW,212,0.0,0.0,86,0.00,,OVC095,0.00,0.00,VWS V14.01,2013-06-25 08:47:00,
2013-06-25 01:52:00,56.8,52.7,29.75,SSW,212,0.0,0.0,86,0.00,,OVC095,0.00,0.00,VWS V14.01,2013-06-25 08:52:00,
2013-06-25 01:57:00,56.7,52.6,29.75,SSW,212,0.0,0.0,86,0.00,,OVC095,0.00,0.00,VWS V14.01,2013-06-25 08:57:00,
2013-06-25 02:02:00,56.6,52.5,29.75,SSW,212,0.0,0.0,86,0.00,,OVC085,0.00,0.00,VWS V14.01,2013-06-25 09:02:00,
2013-06-25 02:07:00,56.5,52.4,29.75,SSW,212,0.0,0.0,86,0.00,,OVC085,0.00,0.00,VWS V14.01,2013-06-25 09:07:00,
2013-06-25 02:12:00,56.4,52.3,29.75,SSW,212,0.0,0.0,86,0.00,,OVC085,0.00,0.00,VWS V14.01,2013-06-25 09:12:00,
2013-06-25 02:17:00,56.0,51.9,29.75,SSW,212,0.0,0.0,86,0.00,,OVC085,0.00,0.00,VWS V14.01,2013-06-25 09:17:00,
2013-06-25 02:22:00,55.9,52.1,29.75,SSW,212,0.0,0.0,87,0.00,,OVC085,0.00,0.00,VWS V14.01,2013-06-25 09:22:00,
2013-06-25 02:27:00,55.8,52.0,29.75,SSW,212,0.0,0.0,87,0.00,,OVC085,0.00,0.00,VWS V14.01,2013-06-25 09:27:00,
2013-06-25 02:32:00,55.7,51.9,29.75,SSW,212,0.0,0.0,87,0.00,,OVC085,0.00,0.00,VWS V14.01,2013-06-25 09:32:00,
2013-06-25 02:37:00,55.6,51.8,29.75,SSW,212,0.0,0.0,87,0.00,,OVC085,0.00,0.00,VWS V14.01,2013-06-25 09:37:00,
2013-06-25 02:42:00,55.5,51.7,29.75,SSW,212,0.0,0.0,87,0.00,,OVC085,0.00,0.00,VWS V14.01,2013-06-25 09:42:00,
2013-06-25 02:47:00,55.4,51.6,29.75,SSW,212,0.0,0.0,87,0.00,,OVC085,0.00,0.00,VWS V14.01,2013-06-25 09:47:00,
2013-06-25 02:52:00,55.3,51.5,29.75,SSW,212,0.0,0.0,87,0.00,,OVC085,0.00,0.00,VWS V14.01,2013-06-25 09:52:00,
2013-06-25 02:57:00,55.2,51.4,29.75,SSW,212,0.0,0.0,87,0.00,,OVC085,0.00,0.00,VWS V14.01,2013-06-25 09:57:00,
2013-06-25 03:02:00,55.2,51.7,29.76,SSW,212,0.0,0.0,88,0.00,,OVC090,0.00,0.00,VWS V14.01,2013-06-25 10:02:00,
2013-06-25 03:07:00,55.1,51.6,29.75,SSW,212,0.0,0.0,88,0.00,,OVC090,0.00,0.00,VWS V14.01,2013-06-25 10:07:00,
2013-06-25 03:12:00,55.0,51.5,29.76,SSW,212,0.0,0.0,88,0.00,,OVC090,0.00,0.00,VWS V14.01,2013-06-25 10:12:00,
2013-06-25 03:17:00,55.1,51.9,29.76,SSW,212,0.0,0.0,89,0.00,,OVC090,0.00,0.00,VWS V14.01,2013-06-25 10:17:00,
2013-06-25 03:22:00,55.0,51.8,29.76,SSW,212,0.0,0.0,89,0.00,,OVC090,0.00,0.00,VWS V14.01,2013-06-25 10:22:00,
2013-06-25 03:27:00,55.0,51.8,29.76,SSW,212,0.0,0.0,89,0.00,,OVC090,0.00,0.00,VWS V14.01,2013-06-25 10:27:00,
2013-06-25 03:32:00,55.0,51.8,29.76,SSW,212,0.0,0.0,89,0.00,,OVC090,0.00,0.00,VWS V14.01,2013-06-25 10:32:00,
2013-06-25 03:37:00,55.1,52.2,29.76,SSW,212,0.0,0.0,90,0.00,,OVC090,0.00,0.00,VWS V14.01,2013-06-25 10:37:00,
2013-06-25 03:42:00,55.1,52.2,29.77,SSW,212,2.0,2.0,90,0.00,,OVC090,0.00,0.00,VWS V14.01,2013-06-25 10:42:00,
2013-06-25 03:47:00,55.2,52.3,29.77,SW,217,0.0,2.0,90,0.00,,OVC090,0.00,0.00,VWS V14.01,2013-06-25 10:47:00,
2013-06-25 03:52:00,55.2,52.3,29.77,WSW,257,0.0,4.0,90,0.00,,OVC090,0.00,0.00,VWS V14.01,2013-06-25 10:52:00,
2013-06-25 03:57:00,55.4,52.5,29.77,West,262,0.0,2.0,90,0.00,,OVC090,0.00,0.00,VWS V14.01,2013-06-25 10:57:00,
2013-06-25 04:02:00,55.3,52.4,29.77,West,262,0.0,0.0,90,0.00,,SCT080,0.00,0.00,VWS V14.01,2013-06-25 11:02:00,
2013-06-25 04:07:00,55.4,52.5,29.77,West,262,0.0,2.0,90,0.00,,SCT080,0.00,0.00,VWS V14.01,2013-06-25 11:07:00,
2013-06-25 04:12:00,55.4,52.2,29.76,West,262,0.0,1.0,89,0.00,,SCT080,0.00,0.00,VWS V14.01,2013-06-25 11:12:00,
2013-06-25 04:18:00,55.4,52.2,29.77,West,262,1.0,2.0,89,0.00,,SCT080,0.00,0.00,VWS V14.01,2013-06-25 11:18:00,
2013-06-25 04:23:00,55.5,52.3,29.77,West,262,1.0,2.0,89,0.00,,SCT080,0.00,0.00,VWS V14.01,2013-06-25 11:23:00,
2013-06-25 04:28:00,55.8,52.3,29.77,North,360,3.0,6.0,88,0.00,,SCT080,0.00,0.00,VWS V14.01,2013-06-25 11:28:00,
2013-06-25 04:33:00,55.7,52.2,29.77,NNW,342,1.0,4.0,88,0.00,,SCT080,0.00,0.00,VWS V14.01,2013-06-25 11:33:00,
2013-06-25 04:38:00,55.5,52.0,29.77,NNW,342,0.0,0.0,88,0.00,,SCT080,0.00,0.00,VWS V14.01,2013-06-25 11:38:00,
2013-06-25 04:43:00,55.2,51.7,29.77,SW,229,0.0,3.0,88,0.00,,SCT080,0.00,0.00,VWS V14.01,2013-06-25 11:43:00,
2013-06-25 04:48:00,55.1,51.6,29.77,SW,229,0.0,0.0,88,0.00,,SCT080,0.00,0.00,VWS V14.01,2013-06-25 11:48:00,
2013-06-25 04:53:00,55.1,51.6,29.77,SW,229,0.0,0.0,88,0.00,,SCT080,0.00,0.00,VWS V14.01,2013-06-25 11:53:00,
2013-06-25 04:58:00,55.0,51.5,29.77,SW,229,0.0,0.0,88,0.00,,SCT080,0.00,0.00,VWS V14.01,2013-06-25 11:58:00,
2013-06-25 05:03:00,54.8,51.3,29.77,SW,229,0.0,1.0,88,0.00,,CLR,0.00,0.00,VWS V14.01,2013-06-25 12:03:00,
2013-06-25 05:08:00,54.7,51.2,29.76,SW,219,0.0,1.0,88,0.00,,CLR,0.00,0.00,VWS V14.01,2013-06-25 12:08:00,
2013-06-25 05:13:00,54.6,51.1,29.76,SSW,212,0.0,0.0,88,0.00,,CLR,0.00,0.00,VWS V14.01,2013-06-25 12:13:00,
2013-06-25 05:18:00,54.4,50.9,29.77,SSW,212,0.0,0.0,88,0.00,,CLR,0.00,0.00,VWS V14.01,2013-06-25 12:18:00,
2013-06-25 05:23:00,54.2,50.7,29.77,SSW,212,0.0,0.0,88,0.00,,CLR,0.00,0.00,VWS V14.01,2013-06-25 12:23:00,
2013-06-25 05:28:00,54.2,50.7,29.77,SSW,212,0.0,0.0,88,0.00,,CLR,0.00,0.00,VWS V14.01,2013-06-25 12:28:00,
2013-06-25 05:33:00,54.0,50.5,29.77,SSW,212,0.0,0.0,88,0.00,,CLR,0.00,0.00,VWS V14.01,2013-06-25 12:33:00,
2013-06-25 05:38:00,53.5,50.0,29.77,SSW,212,0.0,2.0,88,0.00,,CLR,0.00,5.00,VWS V14.01,2013-06-25 12:38:00,
2013-06-25 05:43:00,53.4,50.2,29.77,SSW,212,0.0,0.0,89,0.00,,CLR,0.00,7.00,VWS V14.01,2013-06-25 12:43:00,
2013-06-25 05:48:00,53.3,50.2,29.77,SSW,212,0.0,1.0,89,0.00,,CLR,0.00,11.00,VWS V14.01,2013-06-25 12:48:00,
2013-06-25 05:53:00,53.3,50.5,29.77,ENE,57,4.0,4.0,90,0.00,,CLR,0.00,11.00,VWS V14.01,2013-06-25 12:53:00,
2013-06-25 05:58:00,53.3,50.5,29.77,NE,48,0.0,2.0,90,0.00,,CLR,0.00,11.00,VWS V14.01,2013-06-25 12:58:00,
2013-06-25 06:03:00,53.3,50.5,29.77,NE,47,1.0,1.0,90,0.00,,CLR,0.00,12.00,VWS V14.01,2013-06-25 13:03:00,
2013-06-25 06:08:00,53.3,50.5,29.77,NE,47,0.0,0.0,90,0.00,,CLR,0.00,12.00,VWS V14.01,2013-06-25 13:08:00,
2013-06-25 06:13:00,53.2,50.3,29.77,NE,47,0.0,0.0,90,0.00,,CLR,0.00,14.00,VWS V14.01,2013-06-25 13:13:00,
2013-06-25 06:18:00,53.2,50.3,29.77,NE,47,0.0,0.0,90,0.00,,CLR,0.00,16.00,VWS V14.01,2013-06-25 13:18:00,
2013-06-25 06:23:00,53.2,50.3,29.77,NE,47,0.0,0.0,90,0.00,,CLR,0.00,83.00,VWS V14.01,2013-06-25 13:23:00,
2013-06-25 06:28:00,53.2,50.3,29.77,NE,47,0.0,0.0,90,0.00,,SCT140,0.00,95.00,VWS V14.01,2013-06-25 13:28:00,
2013-06-25 06:33:00,53.5,50.9,29.77,NE,47,0.0,0.0,91,0.00,,SCT140,0.00,107.00,VWS V14.01,2013-06-25 13:33:00,
2013-06-25 06:38:00,54.1,51.5,29.78,NE,47,0.0,0.0,91,0.00,,SCT140,0.00,123.00,VWS V14.01,2013-06-25 13:38:00,
2013-06-25 06:43:00,54.6,52.0,29.77,ESE,115,0.0,1.0,91,0.00,,SCT140,0.00,137.00,VWS V14.01,2013-06-25 13:43:00,
2013-06-25 06:48:00,55.3,53.0,29.78,ESE,115,0.0,0.0,92,0.00,,SCT140,0.00,155.00,VWS V14.01,2013-06-25 13:48:00,
2013-06-25 06:53:00,55.9,53.3,29.78,ESE,117,0.0,1.0,91,0.00,,SCT140,0.00,171.00,VWS V14.01,2013-06-25 13:53:00,
2013-06-25 06:58:00,56.6,53.7,29.78,ESE,117,0.0,0.0,90,0.00,,SCT140,0.00,188.00,VWS V14.01,2013-06-25 13:58:00,
2013-06-25 07:03:00,57.2,54.0,29.78,SSE,161,3.0,3.0,89,0.00,,FEW140,0.00,202.00,VWS V14.01,2013-06-25 14:03:00,
2013-06-25 07:08:00,57.8,53.7,29.78,SSE,161,0.0,3.0,86,0.00,,FEW140,0.00,216.00,VWS V14.01,2013-06-25 14:08:00,
2013-06-25 07:13:00,58.4,53.6,29.77,SSE,161,0.0,1.0,84,0.00,,FEW140,0.00,230.00,VWS V14.01,2013-06-25 14:13:00,
2013-06-25 07:18:00,58.8,53.7,29.78,SSE,161,1.0,1.0,83,0.00,,FEW140,0.00,246.00,VWS V14.01,2013-06-25 14:18:00,
2013-06-25 07:23:00,59.4,53.2,29.78,SSE,162,0.0,2.0,80,0.00,,FEW140,0.00,265.00,VWS V14.01,2013-06-25 14:23:00,
2013-06-25 07:28:00,59.9,53.7,29.78,SSE,162,0.0,0.0,80,0.00,,FEW140,0.00,297.00,VWS V14.01,2013-06-25 14:28:00,
2013-06-25 07:33:00,60.4,54.2,29.78,SSE,162,0.0,1.0,80,0.00,,FEW140,0.00,376.00,VWS V14.01,2013-06-25 14:33:00,
2013-06-25 07:38:00,61.2,54.6,29.78,SE,131,1.0,5.0,79,0.00,,FEW140,0.00,454.00,VWS V14.01,2013-06-25 14:38:00,
2013-06-25 07:43:00,61.3,54.0,29.78,SE,136,0.0,2.0,77,0.00,,FEW140,0.00,113.00,VWS V14.01,2013-06-25 14:43:00,
2013-06-25 07:48:00,61.3,54.4,29.78,SE,135,3.0,4.0,78,0.00,,FEW140,0.00,411.00,VWS V14.01,2013-06-25 14:48:00,
2013-06-25 07:53:00,62.0,55.4,29.78,SE,134,3.0,4.0,79,0.00,,FEW140,0.00,494.00,VWS V14.01,2013-06-25 14:53:00,
2013-06-25 07:58:00,62.6,54.6,29.78,SE,142,0.0,3.0,75,0.00,,FEW140,0.00,512.00,VWS V14.01,2013-06-25 14:58:00,
2013-06-25 08:03:00,62.9,54.9,29.77,SE,145,3.0,4.0,75,0.00,,BKN110,0.00,327.00,VWS V14.01,2013-06-25 15:03:00,
2013-06-25 08:08:00,63.5,55.4,29.77,South,182,2.0,4.0,75,0.00,,BKN110,0.00,468.00,VWS V14.01,2013-06-25 15:08:00,
2013-06-25 08:13:00,64.2,55.4,29.77,South,176,0.0,4.0,73,0.00,,BKN110,0.00,478.00,VWS V14.01,2013-06-25 15:13:00,
2013-06-25 08:18:00,65.0,55.4,29.77,SSE,157,4.0,7.0,71,0.00,,BKN110,0.00,478.00,VWS V14.01,2013-06-25 15:18:00,
2013-06-25 08:19:00,65.0,55.4,29.77,SSE,161,4.0,7.0,71,0.00,,BKN110,0.00,478.00,VWS V14.01,2013-06-25 15:19:00,
2013-06-25 08:24:00,65.3,54.9,29.77,South,181,2.0,8.0,69,0.00,,BKN110,0.00,450.00,VWS V14.01,2013-06-25 15:24:00,
2013-06-25 08:29:00,65.6,55.2,29.76,SSE,157,5.0,7.0,69,0.00,,BKN110,0.00,459.00,VWS V14.01,2013-06-25 15:29:00,
2013-06-25 08:34:00,65.9,55.5,29.77,SSW,194,8.0,8.0,69,0.00,,BKN110,0.00,473.00,VWS V14.01,2013-06-25 15:34:00,
2013-06-25 08:39:00,66.2,54.9,29.76,SSW,209,2.0,7.0,67,0.00,,BKN110,0.00,485.00,VWS V14.01,2013-06-25 15:39:00,
2013-06-25 08:44:00,66.8,55.9,29.76,SSW,203,3.0,6.0,68,0.00,,BKN110,0.00,497.00,VWS V14.01,2013-06-25 15:44:00,
2013-06-25 08:49:00,66.9,54.8,29.77,SSW,211,6.0,7.0,65,0.00,,BKN110,0.00,512.00,VWS V14.01,2013-06-25 15:49:00,
2013-06-25 08:54:00,67.2,55.0,29.77,SSW,198,3.0,9.0,65,0.00,,BKN110,0.00,526.00,VWS V14.01,2013-06-25 15:54:00,
2013-06-25 08:59:00,67.2,54.6,29.77,South,181,2.0,10.0,64,0.00,,BKN110,0.00,541.00,VWS V14.01,2013-06-25 15:59:00,
2013-06-25 09:04:00,67.7,54.7,29.76,SW,216,11.0,11.0,63,0.00,,SCT110,0.00,555.00,VWS V14.01,2013-06-25 16:04:00,
2013-06-25 09:09:00,67.7,54.7,29.76,SSE,162,4.0,10.0,63,0.00,,SCT110,0.00,570.00,VWS V14.01,2013-06-25 16:09:00,
2013-06-25 09:14:00,68.7,54.7,29.76,SSE,157,3.0,7.0,61,0.00,,SCT110,0.00,584.00,VWS V14.01,2013-06-25 16:14:00,
2013-06-25 09:19:00,69.2,54.7,29.76,South,184,5.0,10.0,60,0.00,,SCT110,0.00,596.00,VWS V14.01,2013-06-25 16:19:00,
2013-06-25 09:24:00,69.5,54.1,29.76,SSE,150,4.0,6.0,58,0.00,,SCT110,0.00,606.00,VWS V14.01,2013-06-25 16:24:00,
2013-06-25 09:29:00,70.6,54.6,29.76,South,174,3.0,5.0,57,0.00,,SCT110,0.00,621.00,VWS V14.01,2013-06-25 16:29:00,
2013-06-25 09:34:00,71.4,54.4,29.76,SW,217,3.0,8.0,55,0.00,,SCT110,0.00,636.00,VWS V14.01,2013-06-25 16:34:00,
2013-06-25 09:39:00,72.1,55.1,29.76,South,180,2.0,9.0,55,0.00,,SCT110,0.00,649.00,VWS V14.01,2013-06-25 16:39:00,
2013-06-25 09:44:00,73.0,54.4,29.76,South,178,2.0,7.0,52,0.00,,SCT110,0.00,664.00,VWS V14.01,2013-06-25 16:44:00,
2013-06-25 09:49:00,73.3,53.0,29.76,SSE,166,7.0,12.0,49,0.00,,SCT110,0.00,701.00,VWS V14.01,2013-06-25 16:49:00,
2013-06-25 09:54:00,73.6,53.8,29.76,SSE,158,5.0,11.0,50,0.00,,SCT110,0.00,735.00,VWS V14.01,2013-06-25 16:54:00,
2013-06-25 09:59:00,74.0,52.5,29.76,South,191,9.0,12.0,47,0.00,,SCT110,0.00,722.00,VWS V14.01,2013-06-25 16:59:00,
2013-06-25 10:04:00,74.7,51.4,29.76,SW,217,4.0,13.0,44,0.00,,SCT110,0.00,766.00,VWS V14.01,2013-06-25 17:04:00,
2013-06-25 10:09:00,75.5,51.5,29.75,South,186,10.0,14.0,43,0.00,,SCT110,0.00,907.00,VWS V14.01,2013-06-25 17:09:00,
2013-06-25 10:14:00,74.9,50.9,29.75,SSW,209,6.0,14.0,43,0.00,,SCT110,0.00,680.00,VWS V14.01,2013-06-25 17:14:00,
2013-06-25 10:19:00,75.2,51.2,29.75,SSW,208,6.0,16.0,43,0.00,,SCT110,0.00,749.00,VWS V14.01,2013-06-25 17:19:00,
2013-06-25 10:24:00,75.7,51.6,29.75,SW,229,11.0,13.0,43,0.00,,SCT110,0.00,758.00,VWS V14.01,2013-06-25 17:24:00,
2013-06-25 10:29:00,76.5,53.0,29.75,South,171,11.0,13.0,44,0.00,,SCT110,0.00,766.00,VWS V14.01,2013-06-25 17:29:00,
2013-06-25 10:34:00,76.2,50.8,29.75,SSE,167,7.0,14.0,41,0.00,,SCT110,0.00,780.00,VWS V14.01,2013-06-25 17:34:00,
2013-06-25 10:39:00,76.6,51.8,29.75,SSW,205,7.0,12.0,42,0.00,,SCT110,0.00,798.00,VWS V14.01,2013-06-25 17:39:00,
2013-06-25 10:44:00,76.7,51.2,29.75,South,184,10.0,12.0,41,0.00,,SCT110,0.00,812.00,VWS V14.01,2013-06-25 17:44:00,
2013-06-25 10:49:00,77.3,51.1,29.75,SSE,156,8.0,14.0,40,0.00,,SCT110,0.00,833.00,VWS V14.01,2013-06-25 17:49:00,
2013-06-25 10:54:00,77.6,50.0,29.75,South,171,10.0,16.0,38,0.00,,SCT110,0.00,886.00,VWS V14.01,2013-06-25 17:54:00,
2013-06-25 10:59:00,78.3,51.3,29.75,SSW,207,7.0,10.0,39,0.00,,SCT110,0.00,1023.00,VWS V14.01,2013-06-25 17:59:00,
2013-06-25 11:04:00,78.5,50.8,29.75,SW,216,12.0,13.0,38,0.00,,BKN120,0.00,788.00,VWS V14.01,2013-06-25 18:04:00,
2013-06-25 11:05:00,78.5,50.8,29.75,SSW,196,16.0,16.0,38,0.00,,BKN120,0.00,788.00,VWS V14.01,2013-06-25 18:05:00,
2013-06-25 11:10:00,78.5,48.6,29.75,WSW,244,8.0,17.0,35,0.00,,BKN120,0.00,1088.00,VWS V14.01,2013-06-25 18:10:00,
2013-06-25 11:15:00,78.0,48.2,29.75,SSW,200,12.0,16.0,35,0.00,,BKN120,0.00,290.00,VWS V14.01,2013-06-25 18:15:00,
2013-06-25 11:20:00,77.8,49.5,29.76,SW,232,8.0,18.0,37,0.00,,BKN120,0.00,1086.00,VWS V14.01,2013-06-25 18:20:00,
2013-06-25 11:25:00,80.3,49.4,29.75,SSW,205,5.0,15.0,34,0.00,,BKN120,0.00,1129.00,VWS V14.01,2013-06-25 18:25:00,
2013-06-25 11:30:00,80.5,48.0,29.76,WSW,238,8.0,14.0,32,0.00,,BKN120,0.00,295.00,VWS V14.01,2013-06-25 18:30:00,
2013-06-25 11:35:00,79.5,47.9,29.75,SSW,205,7.0,13.0,33,0.00,,BKN120,0.00,359.00,VWS V14.01,2013-06-25 18:35:00,
2013-06-25 11:40:00,79.4,47.8,29.76,WSW,250,8.0,16.0,33,0.00,,BKN120,0.00,441.00,VWS V14.01,2013-06-25 18:40:00,
2013-06-25 11:45:00,79.8,46.5,29.75,WSW,251,12.0,20.0,31,0.00,,BKN120,0.00,499.00,VWS V14.01,2013-06-25 18:45:00,
2013-06-25 11:50:00,81.0,44.9,29.75,West,265,13.0,24.0,28,0.00,,BKN120,0.00,424.00,VWS V14.01,2013-06-25 18:50:00,
2013-06-25 11:55:00,80.4,45.3,29.76,SW,222,15.0,15.0,29,0.00,,BKN120,0.00,450.00,VWS V14.01,2013-06-25 18:55:00,
2013-06-25 12:00:00,81.1,46.8,29.76,West,271,11.0,19.0,30,0.00,,BKN120,0.00,1194.00,VWS V14.01,2013-06-25 19:00:00,
2013-06-25 12:05:00,82.0,45.7,29.75,WSW,242,17.0,21.0,28,0.00,,BKN140,0.00,573.00,VWS V14.01,2013-06-25 19:05:00,
2013-06-25 12:10:00,81.4,45.2,29.75,West,267,7.0,18.0,28,0.00,,BKN140,0.00,287.00,VWS V14.01,2013-06-25 19:10:00,
2013-06-25 12:15:00,80.7,46.4,29.75,South,188,5.0,18.0,30,0.00,,BKN140,0.00,332.00,VWS V14.01,2013-06-25 19:15:00,
2013-06-25 12:20:00,81.8,45.5,29.75,West,263,11.0,22.0,28,0.00,,BKN140,0.00,870.00,VWS V14.01,2013-06-25 19:20:00,
2013-06-25 12:25:00,82.5,47.1,29.75,WNW,295,16.0,26.0,29,0.00,,BKN140,0.00,1072.00,VWS V14.01,2013-06-25 19:25:00,
2013-06-25 12:30:00,83.5,46.0,29.75,SW,229,10.0,21.0,27,0.00,,BKN140,0.00,752.00,VWS V14.01,2013-06-25 19:30:00,
2013-06-25 12:35:00,83.5,47.0,29.75,West,263,10.0,23.0,28,0.00,,BKN140,0.00,1014.00,VWS V14.01,2013-06-25 19:35:00,
2013-06-25 12:40:00,83.9,47.3,29.75,West,268,8.0,23.0,28,0.00,,BKN140,0.00,1004.00,VWS V14.01,2013-06-25 19:40:00,
2013-06-25 12:45:00,84.1,48.5,29.75,WSW,240,6.0,19.0,29,0.00,,BKN140,0.00,1005.00,VWS V14.01,2013-06-25 19:45:00,
2013-06-25 12:50:00,84.4,46.8,29.75,West,271,9.0,19.0,27,0.00,,BKN140,0.00,257.00,VWS V14.01,2013-06-25 19:50:00,
2013-06-25 12:55:00,83.8,48.2,29.75,SW,215,7.0,15.0,29,0.00,,BKN140,0.00,1088.00,VWS V14.01,2013-06-25 19:55:00,
2013-06-25 13:00:00,84.5,45.9,29.75,WSW,246,10.0,23.0,26,0.00,,BKN140,0.00,1035.00,VWS V14.01,2013-06-25 20:00:00,
2013-06-25 13:05:00,84.0,46.5,29.75,WSW,256,11.0,26.0,27,0.00,,BKN140,0.00,1009.00,VWS V14.01,2013-06-25 20:05:00,
2013-06-25 13:10:00,84.4,46.8,29.75,WSW,254,17.0,25.0,27,0.00,,BKN140,0.00,1037.00,VWS V14.01,2013-06-25 20:10:00,
2013-06-25 13:15:00,84.6,44.9,29.75,SW,234,13.0,23.0,25,0.00,,BKN140,0.00,1209.00,VWS V14.01,2013-06-25 20:15:00,
2013-06-25 13:20:00,84.0,45.5,29.75,WSW,255,20.0,26.0,26,0.00,,BKN140,0.00,297.00,VWS V14.01,2013-06-25 20:20:00,
2013-06-25 13:25:00,83.4,46.0,29.75,South,189,17.0,27.0,27,0.00,,BKN140,0.00,392.00,VWS V14.01,2013-06-25 20:25:00,
2013-06-25 13:30:00,83.9,46.4,29.74,SW,221,16.0,26.0,27,0.00,,BKN140,0.00,1041.00,VWS V14.01,2013-06-25 20:30:00,
2013-06-25 13:35:00,83.9,48.3,29.74,West,266,6.0,22.0,29,0.00,,BKN140,0.00,983.00,VWS V14.01,2013-06-25 20:35:00,
2013-06-25 13:40:00,84.2,48.5,29.74,WSW,238,14.0,23.0,29,0.00,,BKN140,0.00,1065.00,VWS V14.01,2013-06-25 20:40:00,
2013-06-25 13:45:00,84.1,47.5,29.74,West,264,16.0,22.0,28,0.00,,BKN140,0.00,1165.00,VWS V14.01,2013-06-25 20:45:00,
2013-06-25 13:50:00,83.7,47.2,29.74,WSW,254,21.0,21.0,28,0.00,,BKN140,0.00,360.00,VWS V14.01,2013-06-25 20:50:00,
2013-06-25 13:55:00,82.6,48.1,29.74,WNW,286,11.0,20.0,30,0.00,,BKN140,0.00,371.00,VWS V14.01,2013-06-25 20:55:00,
2013-06-25 14:00:00,82.5,48.0,29.74,West,269,10.0,21.0,30,0.00,,BKN140,0.00,471.00,VWS V14.01,2013-06-25 21:00:00,
2013-06-25 14:05:00,83.3,48.7,29.74,West,277,10.0,24.0,30,0.00,,BKN140,0.00,962.00,VWS V14.01,2013-06-25 21:05:00,
2013-06-25 14:10:00,83.3,48.7,29.74,WNW,292,11.0,26.0,30,0.00,,BKN140,0.00,940.00,VWS V14.01,2013-06-25 21:10:00,
2013-06-25 14:15:00,83.0,47.5,29.74,WNW,300,6.0,26.0,29,0.00,,BKN140,0.00,970.00,VWS V14.01,2013-06-25 21:15:00,
2013-06-25 14:20:00,82.9,49.2,29.74,West,277,9.0,21.0,31,0.00,,BKN140,0.00,928.00,VWS V14.01,2013-06-25 21:20:00,
2013-06-25 14:25:00,82.9,49.2,29.74,NW,313,12.0,24.0,31,0.00,,BKN140,0.00,898.00,VWS V14.01,2013-06-25 21:25:00,
2013-06-25 14:30:00,82.7,49.0,29.74,West,264,9.0,27.0,31,0.00,,BKN140,0.00,942.00,VWS V14.01,2013-06-25 21:30:00,
2013-06-25 14:35:00,83.1,49.4,29.73,West,271,14.0,19.0,31,0.00,,BKN140,0.00,872.00,VWS V14.01,2013-06-25 21:35:00,
2013-06-25 14:40:00,83.5,48.8,29.73,WSW,255,13.0,19.0,30,0.00,,BKN140,0.00,867.00,VWS V14.01,2013-06-25 21:40:00,
2013-06-25 14:45:00,83.0,49.3,29.74,West,273,18.0,18.0,31,0.00,,BKN140,0.00,868.00,VWS V14.01,2013-06-25 21:45:00,
2013-06-25 14:50:00,83.4,48.8,29.74,West,275,11.0,14.0,30,0.00,,BKN140,0.00,856.00,VWS V14.01,2013-06-25 21:50:00,
2013-06-25 14:55:00,83.5,48.8,29.73,West,269,10.0,16.0,30,0.00,,BKN140,0.00,877.00,VWS V14.01,2013-06-25 21:55:00,
2013-06-25 15:00:00,83.2,48.6,29.74,WSW,254,12.0,12.0,30,0.00,,SCT150,0.00,838.00,VWS V14.01,2013-06-25 22:00:00,
2013-06-25 15:05:00,83.6,48.9,29.74,West,265,14.0,18.0,30,0.00,,SCT150,0.00,842.00,VWS V14.01,2013-06-25 22:05:00,
2013-06-25 15:10:00,83.5,48.8,29.74,WSW,250,21.0,21.0,30,0.00,,SCT150,0.00,886.00,VWS V14.01,2013-06-25 22:10:00,
2013-06-25 15:15:00,82.5,48.0,29.74,WSW,245,11.0,20.0,30,0.00,,SCT150,0.00,886.00,VWS V14.01,2013-06-25 22:15:00,
2013-06-25 15:20:00,82.6,45.3,29.73,West,274,13.0,20.0,27,0.00,,SCT150,0.00,849.00,VWS V14.01,2013-06-25 22:20:00,
2013-06-25 15:25:00,83.5,45.0,29.73,West,263,22.0,22.0,26,0.00,,SCT150,0.00,793.00,VWS V14.01,2013-06-25 22:25:00,
2013-06-25 15:30:00,83.9,44.3,29.74,West,278,16.0,21.0,25,0.00,,SCT150,0.00,766.00,VWS V14.01,2013-06-25 22:30:00,
2013-06-25 15:35:00,83.4,42.9,29.73,West,273,18.0,21.0,24,0.00,,SCT150,0.00,784.00,VWS V14.01,2013-06-25 22:35:00,
2013-06-25 15:40:00,83.3,43.8,29.74,West,270,15.0,25.0,25,0.00,,SCT150,0.00,777.00,VWS V14.01,2013-06-25 22:40:00,
2013-06-25 15:45:00,83.2,44.8,29.74,SW,234,18.0,23.0,26,0.00,,SCT150,0.00,784.00,VWS V14.01,2013-06-25 22:45:00,
2013-06-25 15:50:00,83.6,44.1,29.73,SW,231,11.0,17.0,25,0.00,,SCT150,0.00,782.00,VWS V14.01,2013-06-25 22:50:00,
2013-06-25 15:55:00,83.5,44.0,29.73,WSW,243,21.0,21.0,25,0.00,,SCT150,0.00,758.00,VWS V14.01,2013-06-25 22:55:00,
2013-06-25 16:00:00,83.4,43.9,29.74,SSW,206,17.0,22.0,25,0.00,,BKN150,0.00,770.00,VWS V14.01,2013-06-25 23:00:00,
2013-06-25 16:05:00,83.1,43.7,29.74,SW,229,11.0,22.0,25,0.00,,BKN150,0.00,740.00,VWS V14.01,2013-06-25 23:05:00,
2013-06-25 16:10:00,84.1,44.5,29.74,WSW,243,19.0,26.0,25,0.00,,BKN150,0.00,740.00,VWS V14.01,2013-06-25 23:10:00,
2013-06-25 16:15:00,83.4,43.9,29.74,SW,234,17.0,20.0,25,0.00,,BKN150,0.00,721.00,VWS V14.01,2013-06-25 23:15:00,
2013-06-25 16:20:00,83.0,44.6,29.74,WSW,256,18.0,19.0,26,0.00,,BKN150,0.00,703.00,VWS V14.01,2013-06-25 23:20:00,
2013-06-25 16:25:00,82.5,45.2,29.74,WSW,245,27.0,27.0,27,0.00,,BKN150,0.00,675.00,VWS V14.01,2013-06-25 23:25:00,
2013-06-25 16:30:00,82.2,44.9,29.74,West,278,25.0,25.0,27,0.00,,BKN150,0.00,684.00,VWS V14.01,2013-06-25 23:30:00,
2013-06-25 16:35:00,81.8,44.6,29.75,SW,227,14.0,22.0,27,0.00,,BKN150,0.00,612.00,VWS V14.01,2013-06-25 23:35:00,
2013-06-25 16:40:00,81.7,45.5,29.74,WSW,254,19.0,24.0,28,0.00,,BKN150,0.00,645.00,VWS V14.01,2013-06-25 23:40:00,
2013-06-25 16:45:00,82.1,45.8,29.75,WSW,238,18.0,22.0,28,0.00,,BKN150,0.00,584.00,VWS V14.01,2013-06-25 23:45:00,
2013-06-25 16:50:00,81.3,45.1,29.75,SW,233,12.0,23.0,28,0.00,,BKN150,0.00,580.00,VWS V14.01,2013-06-25 23:50:00,
2013-06-25 16:55:00,80.9,45.7,29.75,WSW,254,23.0,23.0,29,0.00,,BKN150,0.00,585.00,VWS V14.01,2013-06-25 23:55:00,
2013-06-25 17:00:00,81.2,46.0,29.75,West,262,18.0,24.0,29,0.00,,SCT150,0.00,490.00,VWS V14.01,2013-06-26 00:00:00,
2013-06-25 17:05:00,81.4,46.1,29.75,WSW,243,19.0,26.0,29,0.00,,SCT150,0.00,548.00,VWS V14.01,2013-06-26 00:05:00,
2013-06-25 17:10:00,81.2,46.0,29.75,WSW,257,22.0,24.0,29,0.00,,SCT150,0.00,531.00,VWS V14.01,2013-06-26 00:10:00,
2013-06-25 17:16:00,80.7,46.4,29.75,WSW,243,23.0,23.0,30,0.00,,SCT150,0.00,517.00,VWS V14.01,2013-06-26 00:16:00,
2013-06-25 17:21:00,80.5,47.1,29.75,West,262,18.0,20.0,31,0.00,,SCT150,0.00,503.00,VWS V14.01,2013-06-26 00:21:00,
2013-06-25 17:26:00,80.9,47.5,29.75,West,273,14.0,23.0,31,0.00,,SCT150,0.00,485.00,VWS V14.01,2013-06-26 00:26:00,
2013-06-25 17:31:00,80.2,46.9,29.75,WSW,252,15.0,19.0,31,0.00,,SCT150,0.00,473.00,VWS V14.01,2013-06-26 00:31:00,
2013-06-25 17:36:00,79.7,46.4,29.75,WSW,248,13.0,18.0,31,0.00,,SCT150,0.00,457.00,VWS V14.01,2013-06-26 00:36:00,
2013-06-25 17:41:00,79.7,47.3,29.75,WSW,253,12.0,21.0,32,0.00,,SCT150,0.00,439.00,VWS V14.01,2013-06-26 00:41:00,
2013-06-25 17:46:00,79.6,47.2,29.75,WSW,237,11.0,22.0,32,0.00,,SCT150,0.00,425.00,VWS V14.01,2013-06-26 00:46:00,
2013-06-25 17:51:00,79.3,46.9,29.75,West,268,14.0,17.0,32,0.00,,SCT150,0.00,410.00,VWS V14.01,2013-06-26 00:51:00,
2013-06-25 17:56:00,79.1,47.6,29.75,WNW,294,7.0,8.0,33,0.00,,SCT150,0.00,396.00,VWS V14.01,2013-06-26 00:56:00,
2013-06-25 18:01:00,79.3,47.7,29.76,WSW,250,12.0,14.0,33,0.00,,SCT150,0.00,383.00,VWS V14.01,2013-06-26 01:01:00,
2013-06-25 18:06:00,79.2,47.7,29.76,WSW,237,10.0,20.0,33,0.00,,SCT150,0.00,369.00,VWS V14.01,2013-06-26 01:06:00,
2013-06-25 18:11:00,78.9,47.4,29.76,WSW,246,16.0,16.0,33,0.00,,SCT150,0.00,357.00,VWS V14.01,2013-06-26 01:11:00,
2013-06-25 18:16:00,78.9,47.4,29.76,WSW,252,12.0,15.0,33,0.00,,SCT150,0.00,338.00,VWS V14.01,2013-06-26 01:16:00,
2013-06-25 18:21:00,78.8,47.3,29.77,West,271,4.0,10.0,33,0.00,,SCT150,0.00,322.00,VWS V14.01,2013-06-26 01:21:00,
2013-06-25 18:26:00,78.9,46.6,29.76,WSW,242,3.0,11.0,32,0.00,,SCT150,0.00,306.00,VWS V14.01,2013-06-26 01:26:00,
2013-06-25 18:31:00,78.7,47.2,29.76,West,259,8.0,12.0,33,0.00,,SCT150,0.00,288.00,VWS V14.01,2013-06-26 01:31:00,
2013-06-25 18:36:00,78.6,47.1,29.76,West,268,9.0,12.0,33,0.00,,SCT150,0.00,272.00,VWS V14.01,2013-06-26 01:36:00,
2013-06-25 18:41:00,78.3,46.9,29.76,West,260,7.0,11.0,33,0.00,,SCT150,0.00,260.00,VWS V14.01,2013-06-26 01:41:00,
2013-06-25 18:46:00,78.3,46.9,29.76,WSW,254,10.0,12.0,33,0.00,,SCT150,0.00,244.00,VWS V14.01,2013-06-26 01:46:00,
2013-06-25 18:51:00,77.5,46.2,29.77,SW,231,14.0,16.0,33,0.00,,SCT150,0.00,229.00,VWS V14.01,2013-06-26 01:51:00,
2013-06-25 18:56:00,77.1,46.6,29.77,WNW,302,8.0,10.0,34,0.00,,SCT150,0.00,209.00,VWS V14.01,2013-06-26 01:56:00,
2013-06-25 19:01:00,77.2,46.7,29.77,West,261,9.0,12.0,34,0.00,,SCT100,0.00,192.00,VWS V14.01,2013-06-26 02:01:00,
2013-06-25 19:06:00,76.9,45.6,29.77,WSW,258,9.0,15.0,33,0.00,,SCT100,0.00,174.00,VWS V14.01,2013-06-26 02:06:00,
2013-06-25 19:11:00,76.8,46.3,29.77,West,269,12.0,18.0,34,0.00,,SCT100,0.00,156.00,VWS V14.01,2013-06-26 02:11:00,
2013-06-25 19:16:00,76.5,47.6,29.77,West,269,13.0,14.0,36,0.00,,SCT100,0.00,141.00,VWS V14.01,2013-06-26 02:16:00,
2013-06-25 19:21:00,75.9,47.8,29.76,WNW,292,11.0,18.0,37,0.00,,SCT100,0.00,123.00,VWS V14.01,2013-06-26 02:21:00,
2013-06-25 19:26:00,75.3,48.0,29.76,WNW,289,11.0,20.0,38,0.00,,SCT100,0.00,107.00,VWS V14.01,2013-06-26 02:26:00,
2013-06-25 19:31:00,74.8,48.2,29.77,WSW,254,10.0,23.0,39,0.00,,SCT100,0.00,91.00,VWS V14.01,2013-06-26 02:31:00,
2013-06-25 19:36:00,74.2,47.7,29.77,SW,231,14.0,23.0,39,0.00,,SCT100,0.00,76.00,VWS V14.01,2013-06-26 02:36:00,
2013-06-25 19:41:00,74.0,47.5,29.77,SW,236,10.0,18.0,39,0.00,,SCT100,0.00,62.00,VWS V14.01,2013-06-26 02:41:00,
2013-06-25 19:46:00,73.7,47.9,29.78,West,265,15.0,21.0,40,0.00,,SCT100,0.00,49.00,VWS V14.01,2013-06-26 02:46:00,
2013-06-25 19:51:00,73.4,47.6,29.77,WSW,250,9.0,14.0,40,0.00,,SCT100,0.00,37.00,VWS V14.01,2013-06-26 02:51:00,
2013-06-25 19:56:00,73.1,47.4,29.77,West,264,7.0,15.0,40,0.00,,SCT100,0.00,21.00,VWS V14.01,2013-06-26 02:56:00,
2013-06-25 20:01:00,72.6,47.6,29.77,WSW,248,9.0,19.0,41,0.00,,SCT100,0.00,16.00,VWS V14.01,2013-06-26 03:01:00,
2013-06-25 20:06:00,72.2,47.9,29.77,WSW,240,9.0,12.0,42,0.00,,SCT100,0.00,11.00,VWS V14.01,2013-06-26 03:06:00,
2013-06-25 20:11:00,71.9,47.6,29.77,WSW,238,8.0,18.0,42,0.00,,SCT100,0.00,9.00,VWS V14.01,2013-06-26 03:11:00,
2013-06-25 20:16:00,71.7,47.4,29.78,WNW,286,6.0,11.0,42,0.00,,SCT100,0.00,7.00,VWS V14.01,2013-06-26 03:16:00,
2013-06-25 20:21:00,71.5,47.2,29.78,West,274,7.0,14.0,42,0.00,,SCT100,0.00,5.00,VWS V14.01,2013-06-26 03:21:00,
2013-06-25 20:26:00,71.3,47.7,29.78,West,261,6.0,11.0,43,0.00,,SCT100,0.00,0.00,VWS V14.01,2013-06-26 03:26:00,
2013-06-25 20:31:00,71.1,47.5,29.78,West,271,8.0,14.0,43,0.00,,SCT100,0.00,0.00,VWS V14.01,2013-06-26 03:31:00,
2013-06-25 20:36:00,70.8,47.8,29.79,West,269,3.0,11.0,44,0.00,,SCT100,0.00,0.00,VWS V14.01,2013-06-26 03:36:00,
2013-06-25 20:41:00,70.5,48.2,29.78,WNW,288,5.0,8.0,45,0.00,,SCT100,0.00,0.00,VWS V14.01,2013-06-26 03:41:00,
2013-06-25 20:46:00,70.1,48.4,29.79,WNW,285,3.0,8.0,46,0.00,,SCT100,0.00,0.00,VWS V14.01,2013-06-26 03:46:00,
2013-06-25 20:51:00,69.8,48.1,29.79,West,274,5.0,9.0,46,0.00,,SCT100,0.00,0.00,VWS V14.01,2013-06-26 03:51:00,
2013-06-25 20:56:00,69.5,47.8,29.79,West,277,4.0,9.0,46,0.00,,SCT100,0.00,0.00,VWS V14.01,2013-06-26 03:56:00,
2013-06-25 21:01:00,69.3,48.2,29.79,West,276,4.0,4.0,47,0.00,,SCT100,0.00,0.00,VWS V14.01,2013-06-26 04:01:00,
2013-06-25 21:06:00,69.1,48.0,29.80,West,266,2.0,8.0,47,0.00,,SCT120,0.00,0.00,VWS V14.01,2013-06-26 04:06:00,
2013-06-25 21:11:00,69.0,48.0,29.80,WNW,283,3.0,4.0,47,0.00,,SCT120,0.00,0.00,VWS V14.01,2013-06-26 04:11:00,
2013-06-25 21:16:00,68.9,47.9,29.80,WNW,284,0.0,1.0,47,0.00,,SCT120,0.00,0.00,VWS V14.01,2013-06-26 04:16:00,
2013-06-25 21:21:00,68.8,48.3,29.80,WNW,290,1.0,4.0,48,0.00,,SCT120,0.00,0.00,VWS V14.01,2013-06-26 04:21:00,
2013-06-25 21:26:00,68.6,48.2,29.80,NW,310,4.0,4.0,48,0.00,,SCT120,0.00,0.00,VWS V14.01,2013-06-26 04:26:00,
2013-06-25 21:31:00,68.5,48.1,29.80,WNW,288,2.0,4.0,48,0.00,,SCT120,0.00,0.00,VWS V14.01,2013-06-26 04:31:00,
2013-06-25 21:36:00,68.3,47.9,29.81,West,281,0.0,4.0,48,0.00,,SCT120,0.00,0.00,VWS V14.01,2013-06-26 04:36:00,
2013-06-25 21:41:00,68.2,47.8,29.81,West,281,2.0,2.0,48,0.00,,SCT120,0.00,0.00,VWS V14.01,2013-06-26 04:41:00,
2013-06-25 21:46:00,67.9,48.1,29.81,West,267,1.0,5.0,49,0.00,,SCT120,0.00,0.00,VWS V14.01,2013-06-26 04:46:00,
2013-06-25 21:51:00,67.6,47.8,29.80,West,271,4.0,4.0,49,0.00,,SCT120,0.00,0.00,VWS V14.01,2013-06-26 04:51:00,
2013-06-25 21:56:00,67.3,48.0,29.81,West,261,2.0,5.0,50,0.00,,SCT120,0.00,0.00,VWS V14.01,2013-06-26 04:56:00,
2013-06-25 22:01:00,67.0,47.8,29.81,West,263,3.0,3.0,50,0.00,,FEW070,0.00,0.00,VWS V14.01,2013-06-26 05:01:00,
2013-06-25 22:06:00,66.7,48.0,29.81,West,269,1.0,3.0,51,0.00,,FEW070,0.00,0.00,VWS V14.01,2013-06-26 05:06:00,
2013-06-25 22:11:00,66.5,47.8,29.81,West,270,0.0,3.0,51,0.00,,FEW070,0.00,0.00,VWS V14.01,2013-06-26 05:11:00,
2013-06-25 22:16:00,66.2,48.1,29.80,WNW,287,0.0,2.0,52,0.00,,FEW070,0.00,0.00,VWS V14.01,2013-06-26 05:16:00,
2013-06-25 22:21:00,65.9,47.8,29.80,WNW,288,1.0,3.0,52,0.00,,FEW070,0.00,0.00,VWS V14.01,2013-06-26 05:21:00,
2013-06-25 22:26:00,65.7,48.1,29.80,WNW,284,3.0,4.0,53,0.00,,FEW070,0.00,0.00,VWS V14.01,2013-06-26 05:26:00,
2013-06-25 22:31:00,65.5,47.9,29.80,WNW,285,1.0,2.0,53,0.00,,FEW070,0.00,0.00,VWS V14.01,2013-06-26 05:31:00,
2013-06-25 22:36:00,65.3,47.8,29.80,WNW,293,1.0,3.0,53,0.00,,FEW070,0.00,0.00,VWS V14.01,2013-06-26 05:36:00,
2013-06-25 22:41:00,65.2,47.7,29.80,WNW,296,0.0,1.0,53,0.00,,FEW070,0.00,0.00,VWS V14.01,2013-06-26 05:41:00,
2013-06-25 22:46:00,64.9,47.4,29.80,WNW,298,1.0,2.0,53,0.00,,FEW070,0.00,0.00,VWS V14.01,2013-06-26 05:46:00,
2013-06-25 22:51:00,64.7,47.7,29.80,North,11,2.0,5.0,54,0.00,,FEW070,0.00,0.00,VWS V14.01,2013-06-26 05:51:00,
2013-06-25 22:56:00,64.7,47.2,29.80,NE,42,4.0,5.0,53,0.00,,FEW070,0.00,0.00,VWS V14.01,2013-06-26 05:56:00,
2013-06-25 23:01:00,64.7,47.7,29.80,East,81,0.0,6.0,54,0.00,,CLR,0.00,0.00,VWS V14.01,2013-06-26 06:01:00,
2013-06-25 23:06:00,64.3,47.3,29.80,ENE,57,5.0,13.0,54,0.00,,CLR,0.00,0.00,VWS V14.01,2013-06-26 06:06:00,
2013-06-25 23:11:00,65.8,47.7,29.79,ENE,65,8.0,16.0,52,0.00,,CLR,0.00,0.00,VWS V14.01,2013-06-26 06:11:00,
2013-06-25 23:16:00,67.6,47.2,29.80,WNW,298,2.0,12.0,48,0.00,,CLR,0.00,0.00,VWS V14.01,2013-06-26 06:16:00,
2013-06-25 23:21:00,68.1,47.1,29.81,WSW,252,1.0,5.0,47,0.00,,CLR,0.00,0.00,VWS V14.01,2013-06-26 06:21:00,
2013-06-25 23:26:00,68.1,47.1,29.81,NE,40,6.0,6.0,47,0.00,,CLR,0.00,0.00,VWS V14.01,2013-06-26 06:26:00,
2013-06-25 23:31:00,68.3,46.7,29.81,ESE,117,2.0,9.0,46,0.00,,CLR,0.00,0.00,VWS V14.01,2013-06-26 06:31:00,
2013-06-25 23:36:00,68.7,46.5,29.81,East,90,1.0,4.0,45,0.00,,CLR,0.00,0.00,VWS V14.01,2013-06-26 06:36:00,
2013-06-25 23:41:00,68.6,46.4,29.81,ENE,74,1.0,8.0,45,0.00,,CLR,0.00,0.00,VWS V14.01,2013-06-26 06:41:00,
2013-06-25 23:46:00,68.6,47.0,29.81,NNE,13,2.0,4.0,46,0.00,,CLR,0.00,0.00,VWS V14.01,2013-06-26 06:46:00,
2013-06-25 23:51:00,68.2,46.7,29.81,NNE,17,5.0,6.0,46,0.00,,CLR,0.00,0.00,VWS V14.01,2013-06-26 06:51:00,
2013-06-25 23:56:00,68.7,46.5,29.81,NW,321,2.0,4.0,45,0.00,,CLR,0.00,0.00,VWS V14.01,2013-06-26 06:56:00,